Terminal Aerodrome Forecast
Issued by NWS

Home | Current Version | Previous Version | Text Only | Print | Product List | Glossary On
Versions: 1 2 3 4 5 6 7 8 9 10 11 12 13 14 15 16 17 18 19 20 21 22
000
FTAK31 PAFA 112339
TAFAGA
TAF
PAGA 112339Z 1200/1224 19010KT P6SM -SHRA VCTS BKN060CB OVC080
     FM120600 17004KT P6SM BKN050 OVC070
     FM121400 20003KT P6SM VCSH BKN080 OVC100=

USA.gov is the U.S. government's official web portal to all federal, state and local government web resources and services.